sensor_id;sensor_type;location;lat;lon;timestamp;temperature;humidity
22337;DHT22;14992;50.844;4.418;2023-02-28T00:01:58;2.40;99.90
22337;DHT22;14992;50.844;4.418;2023-02-28T00:04:28;2.40;99.90
22337;DHT22;14992;50.844;4.418;2023-02-28T00:06:57;2.50;99.90
22337;DHT22;14992;50.844;4.418;2023-02-28T00:09:26;2.40;99.90
22337;DHT22;14992;50.844;4.418;2023-02-28T00:11:54;2.40;99.90
22337;DHT22;14992;50.844;4.418;2023-02-28T00:14:23;2.30;99.90
22337;DHT22;14992;50.844;4.418;2023-02-28T00:16:52;2.30;99.90
22337;DHT22;14992;50.844;4.418;2023-02-28T00:19:21;2.20;99.90
22337;DHT22;14992;50.844;4.418;2023-02-28T00:21:51;2.10;99.90
22337;DHT22;14992;50.844;4.418;2023-02-28T00:24:20;2.10;99.90
22337;DHT22;14992;50.844;4.418;2023-02-28T00:26:49;2.10;99.90
22337;DHT22;14992;50.844;4.418;2023-02-28T00:29:18;2.10;99.90
22337;DHT22;14992;50.844;4.418;2023-02-28T00:31:46;2.10;99.90
22337;DHT22;14992;50.844;4.418;2023-02-28T00:34:15;2.10;99.90
22337;DHT22;14992;50.844;4.418;2023-02-28T00:36:44;2.00;99.90
22337;DHT22;14992;50.844;4.418;2023-02-28T00:39:14;2.00;99.90
22337;DHT22;14992;50.844;4.418;2023-02-28T00:41:43;2.00;99.90
22337;DHT22;14992;50.844;4.418;2023-02-28T00:44:13;2.00;99.90
22337;DHT22;14992;50.844;4.418;2023-02-28T00:46:42;2.00;99.90
22337;DHT22;14992;50.844;4.418;2023-02-28T00:49:11;2.00;99.90
22337;DHT22;14992;50.844;4.418;2023-02-28T00:51:42;1.90;99.90
22337;DHT22;14992;50.844;4.418;2023-02-28T00:54:10;2.00;99.90
22337;DHT22;14992;50.844;4.418;2023-02-28T00:56:41;2.00;99.90
22337;DHT22;14992;50.844;4.418;2023-02-28T00:59:09;2.00;99.90
22337;DHT22;14992;50.844;4.418;2023-02-28T01:01:38;2.00;99.90
22337;DHT22;14992;50.844;4.418;2023-02-28T01:04:07;2.00;99.90
22337;DHT22;14992;50.844;4.418;2023-02-28T01:06:36;2.10;99.90
22337;DHT22;14992;50.844;4.418;2023-02-28T01:09:06;2.20;99.90
22337;DHT22;14992;50.844;4.418;2023-02-28T01:11:35;2.30;99.90
22337;DHT22;14992;50.844;4.418;2023-02-28T01:14:05;2.40;99.90
22337;DHT22;14992;50.844;4.418;2023-02-28T01:16:34;2.50;99.90
22337;DHT22;14992;50.844;4.418;2023-02-28T01:19:03;2.50;99.90
22337;DHT22;14992;50.844;4.418;2023-02-28T01:21:32;2.50;99.90
22337;DHT22;14992;50.844;4.418;2023-02-28T01:24:03;2.40;99.90
22337;DHT22;14992;50.844;4.418;2023-02-28T01:26:32;2.30;99.90
22337;DHT22;14992;50.844;4.418;2023-02-28T01:29:01;2.10;99.90
22337;DHT22;14992;50.844;4.418;2023-02-28T01:31:31;2.00;99.90
22337;DHT22;14992;50.844;4.418;2023-02-28T01:34:00;2.00;99.90
22337;DHT22;14992;50.844;4.418;2023-02-28T01:36:29;2.00;99.90
22337;DHT22;14992;50.844;4.418;2023-02-28T01:38:58;1.90;99.90
22337;DHT22;14992;50.844;4.418;2023-02-28T01:41:29;1.90;99.90
22337;DHT22;14992;50.844;4.418;2023-02-28T01:44:01;1.80;99.90
22337;DHT22;14992;50.844;4.418;2023-02-28T01:46:35;1.80;99.90
22337;DHT22;14992;50.844;4.418;2023-02-28T01:49:07;1.70;99.90
22337;DHT22;14992;50.844;4.418;2023-02-28T01:51:41;1.70;99.90
22337;DHT22;14992;50.844;4.418;2023-02-28T01:54:16;1.70;99.90
22337;DHT22;14992;50.844;4.418;2023-02-28T01:56:49;1.70;99.90
22337;DHT22;14992;50.844;4.418;2023-02-28T01:59:23;1.70;99.90
22337;DHT22;14992;50.844;4.418;2023-02-28T02:01:56;1.70;99.90
22337;DHT22;14992;50.844;4.418;2023-02-28T02:04:27;1.60;99.90
22337;DHT22;14992;50.844;4.418;2023-02-28T02:07:01;1.70;99.90
22337;DHT22;14992;50.844;4.418;2023-02-28T02:09:30;1.70;99.90
22337;DHT22;14992;50.844;4.418;2023-02-28T02:12:02;1.60;99.90
22337;DHT22;14992;50.844;4.418;2023-02-28T02:14:48;1.60;99.90
22337;DHT22;14992;50.844;4.418;2023-02-28T02:17:28;1.70;99.90
22337;DHT22;14992;50.844;4.418;2023-02-28T02:20:18;1.70;99.90
22337;DHT22;14992;50.844;4.418;2023-02-28T02:23:20;1.70;99.90
22337;DHT22;14992;50.844;4.418;2023-02-28T02:25:58;1.90;99.90
22337;DHT22;14992;50.844;4.418;2023-02-28T02:29:06;1.90;99.90
22337;DHT22;14992;50.844;4.418;2023-02-28T02:34:56;1.70;99.90
22337;DHT22;14992;50.844;4.418;2023-02-28T02:37:38;1.70;99.90
22337;DHT22;14992;50.844;4.418;2023-02-28T02:40:13;1.70;99.90
22337;DHT22;14992;50.844;4.418;2023-02-28T02:42:48;1.70;99.90
22337;DHT22;14992;50.844;4.418;2023-02-28T02:45:25;1.60;99.90
22337;DHT22;14992;50.844;4.418;2023-02-28T02:47:56;1.60;99.90
22337;DHT22;14992;50.844;4.418;2023-02-28T02:50:34;1.60;99.90
22337;DHT22;14992;50.844;4.418;2023-02-28T02:53:05;1.50;99.90
22337;DHT22;14992;50.844;4.418;2023-02-28T02:55:40;1.60;99.90
22337;DHT22;14992;50.844;4.418;2023-02-28T02:58:13;1.40;99.90
22337;DHT22;14992;50.844;4.418;2023-02-28T03:00:46;1.40;99.90
22337;DHT22;14992;50.844;4.418;2023-02-28T03:03:18;1.40;99.90
22337;DHT22;14992;50.844;4.418;2023-02-28T03:05:58;1.40;99.90
22337;DHT22;14992;50.844;4.418;2023-02-28T03:08:29;1.30;99.90
22337;DHT22;14992;50.844;4.418;2023-02-28T03:10:59;1.30;99.90
22337;DHT22;14992;50.844;4.418;2023-02-28T03:13:47;1.30;99.90
22337;DHT22;14992;50.844;4.418;2023-02-28T03:16:23;1.40;99.90
22337;DHT22;14992;50.844;4.418;2023-02-28T03:18:58;1.40;99.90
22337;DHT22;14992;50.844;4.418;2023-02-28T03:21:37;1.40;99.90
22337;DHT22;14992;50.844;4.418;2023-02-28T03:24:08;1.50;99.90
22337;DHT22;14992;50.844;4.418;2023-02-28T03:26:43;1.60;99.90
22337;DHT22;14992;50.844;4.418;2023-02-28T03:29:17;1.70;99.90
22337;DHT22;14992;50.844;4.418;2023-02-28T03:31:52;1.80;99.90
22337;DHT22;14992;50.844;4.418;2023-02-28T03:34:27;1.80;99.90
22337;DHT22;14992;50.844;4.418;2023-02-28T03:37:03;1.90;99.90
22337;DHT22;14992;50.844;4.418;2023-02-28T03:39:38;2.00;99.90
22337;DHT22;14992;50.844;4.418;2023-02-28T03:42:11;2.10;99.90
22337;DHT22;14992;50.844;4.418;2023-02-28T03:44:41;2.10;99.90
22337;DHT22;14992;50.844;4.418;2023-02-28T03:47:13;2.10;99.90
22337;DHT22;14992;50.844;4.418;2023-02-28T03:49:47;2.00;99.90
22337;DHT22;14992;50.844;4.418;2023-02-28T03:52:22;2.00;99.90
22337;DHT22;14992;50.844;4.418;2023-02-28T03:54:54;2.10;99.90
22337;DHT22;14992;50.844;4.418;2023-02-28T03:57:31;2.20;99.90
22337;DHT22;14992;50.844;4.418;2023-02-28T04:00:05;2.00;99.90
22337;DHT22;14992;50.844;4.418;2023-02-28T04:02:38;2.00;99.90
22337;DHT22;14992;50.844;4.418;2023-02-28T04:05:08;1.80;99.90
22337;DHT22;14992;50.844;4.418;2023-02-28T04:07:38;1.60;99.90
22337;DHT22;14992;50.844;4.418;2023-02-28T04:10:08;1.50;99.90
22337;DHT22;14992;50.844;4.418;2023-02-28T04:12:37;1.50;99.90
22337;DHT22;14992;50.844;4.418;2023-02-28T04:15:07;1.60;99.90
22337;DHT22;14992;50.844;4.418;2023-02-28T04:17:38;1.70;99.90
22337;DHT22;14992;50.844;4.418;2023-02-28T04:20:07;1.70;99.90
22337;DHT22;14992;50.844;4.418;2023-02-28T04:22:39;1.60;99.90
22337;DHT22;14992;50.844;4.418;2023-02-28T04:25:08;1.40;99.90
22337;DHT22;14992;50.844;4.418;2023-02-28T04:27:37;1.30;99.90
22337;DHT22;14992;50.844;4.418;2023-02-28T04:30:07;1.30;99.90
22337;DHT22;14992;50.844;4.418;2023-02-28T04:32:36;1.30;99.90
22337;DHT22;14992;50.844;4.418;2023-02-28T04:35:05;1.40;99.90
22337;DHT22;14992;50.844;4.418;2023-02-28T04:37:34;1.40;99.90
22337;DHT22;14992;50.844;4.418;2023-02-28T04:40:06;1.40;99.90
22337;DHT22;14992;50.844;4.418;2023-02-28T04:42:35;1.30;99.90
22337;DHT22;14992;50.844;4.418;2023-02-28T04:45:05;1.40;99.90
22337;DHT22;14992;50.844;4.418;2023-02-28T04:47:37;1.50;99.90
22337;DHT22;14992;50.844;4.418;2023-02-28T04:50:07;1.60;99.90
22337;DHT22;14992;50.844;4.418;2023-02-28T04:52:36;1.60;99.90
22337;DHT22;14992;50.844;4.418;2023-02-28T04:55:07;1.50;99.90
22337;DHT22;14992;50.844;4.418;2023-02-28T04:57:35;1.30;99.90
22337;DHT22;14992;50.844;4.418;2023-02-28T05:00:05;1.20;99.90
22337;DHT22;14992;50.844;4.418;2023-02-28T05:02:38;1.10;99.90
22337;DHT22;14992;50.844;4.418;2023-02-28T05:05:08;1.20;99.90
22337;DHT22;14992;50.844;4.418;2023-02-28T05:07:36;1.30;99.90
22337;DHT22;14992;50.844;4.418;2023-02-28T05:10:08;1.30;99.90
22337;DHT22;14992;50.844;4.418;2023-02-28T05:12:37;1.30;99.90
22337;DHT22;14992;50.844;4.418;2023-02-28T05:15:07;1.40;99.90
22337;DHT22;14992;50.844;4.418;2023-02-28T05:17:37;1.50;99.90
22337;DHT22;14992;50.844;4.418;2023-02-28T05:20:07;1.60;99.90
22337;DHT22;14992;50.844;4.418;2023-02-28T05:22:43;1.50;99.90
22337;DHT22;14992;50.844;4.418;2023-02-28T05:25:16;1.40;99.90
22337;DHT22;14992;50.844;4.418;2023-02-28T05:27:46;1.40;99.90
22337;DHT22;14992;50.844;4.418;2023-02-28T05:30:15;1.60;99.90
22337;DHT22;14992;50.844;4.418;2023-02-28T05:32:48;1.80;99.90
22337;DHT22;14992;50.844;4.418;2023-02-28T05:35:18;1.90;99.90
22337;DHT22;14992;50.844;4.418;2023-02-28T05:37:46;2.00;99.90
22337;DHT22;14992;50.844;4.418;2023-02-28T05:40:17;1.90;99.90
22337;DHT22;14992;50.844;4.418;2023-02-28T05:42:49;1.90;99.90
22337;DHT22;14992;50.844;4.418;2023-02-28T05:45:18;2.00;99.90
22337;DHT22;14992;50.844;4.418;2023-02-28T05:47:47;1.90;99.90
22337;DHT22;14992;50.844;4.418;2023-02-28T05:50:16;1.90;99.90
22337;DHT22;14992;50.844;4.418;2023-02-28T05:52:48;1.70;99.90
22337;DHT22;14992;50.844;4.418;2023-02-28T05:55:18;1.70;99.90
22337;DHT22;14992;50.844;4.418;2023-02-28T05:57:47;1.90;99.90
22337;DHT22;14992;50.844;4.418;2023-02-28T06:00:17;2.10;99.90
22337;DHT22;14992;50.844;4.418;2023-02-28T06:02:46;2.00;99.90
22337;DHT22;14992;50.844;4.418;2023-02-28T06:05:16;2.00;99.90
22337;DHT22;14992;50.844;4.418;2023-02-28T06:07:45;2.00;99.90
22337;DHT22;14992;50.844;4.418;2023-02-28T06:10:14;2.20;99.90
22337;DHT22;14992;50.844;4.418;2023-02-28T06:12:44;2.30;99.90
22337;DHT22;14992;50.844;4.418;2023-02-28T06:15:14;2.10;99.90
22337;DHT22;14992;50.844;4.418;2023-02-28T06:17:44;2.20;99.90
22337;DHT22;14992;50.844;4.418;2023-02-28T06:20:13;2.20;99.90
22337;DHT22;14992;50.844;4.418;2023-02-28T06:22:42;2.10;99.90
22337;DHT22;14992;50.844;4.418;2023-02-28T06:25:11;2.00;99.90
22337;DHT22;14992;50.844;4.418;2023-02-28T06:27:39;1.90;99.90
22337;DHT22;14992;50.844;4.418;2023-02-28T06:30:12;1.90;99.90
22337;DHT22;14992;50.844;4.418;2023-02-28T06:32:41;1.90;99.90
22337;DHT22;14992;50.844;4.418;2023-02-28T06:35:09;1.80;99.90
22337;DHT22;14992;50.844;4.418;2023-02-28T06:37:38;1.90;99.90
22337;DHT22;14992;50.844;4.418;2023-02-28T06:40:09;2.00;99.90
22337;DHT22;14992;50.844;4.418;2023-02-28T06:42:38;2.10;99.90
22337;DHT22;14992;50.844;4.418;2023-02-28T06:45:08;2.10;99.90
22337;DHT22;14992;50.844;4.418;2023-02-28T06:47:40;2.10;99.90
22337;DHT22;14992;50.844;4.418;2023-02-28T06:50:11;2.30;99.90
22337;DHT22;14992;50.844;4.418;2023-02-28T06:52:40;2.30;99.90
22337;DHT22;14992;50.844;4.418;2023-02-28T06:55:09;2.30;99.90
22337;DHT22;14992;50.844;4.418;2023-02-28T06:57:38;2.30;99.90
22337;DHT22;14992;50.844;4.418;2023-02-28T07:00:08;2.40;99.90
22337;DHT22;14992;50.844;4.418;2023-02-28T07:02:39;2.40;99.90
22337;DHT22;14992;50.844;4.418;2023-02-28T07:05:08;2.40;99.90
22337;DHT22;14992;50.844;4.418;2023-02-28T07:07:37;2.40;99.90
22337;DHT22;14992;50.844;4.418;2023-02-28T07:10:09;2.40;99.90
22337;DHT22;14992;50.844;4.418;2023-02-28T07:12:38;2.60;99.90
22337;DHT22;14992;50.844;4.418;2023-02-28T07:15:08;2.60;99.90
22337;DHT22;14992;50.844;4.418;2023-02-28T07:17:38;2.50;99.90
22337;DHT22;14992;50.844;4.418;2023-02-28T07:20:08;2.60;99.90
22337;DHT22;14992;50.844;4.418;2023-02-28T07:22:37;2.70;99.90
22337;DHT22;14992;50.844;4.418;2023-02-28T07:25:08;2.80;99.90
22337;DHT22;14992;50.844;4.418;2023-02-28T07:27:37;2.80;99.90
22337;DHT22;14992;50.844;4.418;2023-02-28T07:30:07;2.70;99.90
22337;DHT22;14992;50.844;4.418;2023-02-28T07:32:36;2.80;99.90
22337;DHT22;14992;50.844;4.418;2023-02-28T07:35:07;2.70;99.90
22337;DHT22;14992;50.844;4.418;2023-02-28T07:37:36;2.70;99.90
22337;DHT22;14992;50.844;4.418;2023-02-28T07:40:06;2.60;99.90
22337;DHT22;14992;50.844;4.418;2023-02-28T07:42:36;2.70;99.90
22337;DHT22;14992;50.844;4.418;2023-02-28T07:45:06;2.70;99.90
22337;DHT22;14992;50.844;4.418;2023-02-28T07:47:36;2.70;99.90
22337;DHT22;14992;50.844;4.418;2023-02-28T07:50:07;2.70;99.90
22337;DHT22;14992;50.844;4.418;2023-02-28T07:52:37;2.60;99.90
22337;DHT22;14992;50.844;4.418;2023-02-28T07:55:07;2.70;99.90
22337;DHT22;14992;50.844;4.418;2023-02-28T07:57:37;2.70;99.90
22337;DHT22;14992;50.844;4.418;2023-02-28T08:00:08;2.70;99.90
22337;DHT22;14992;50.844;4.418;2023-02-28T08:02:37;2.90;99.90
22337;DHT22;14992;50.844;4.418;2023-02-28T08:05:08;2.90;99.90
22337;DHT22;14992;50.844;4.418;2023-02-28T08:07:37;2.90;99.90
22337;DHT22;14992;50.844;4.418;2023-02-28T08:10:07;2.90;99.90
22337;DHT22;14992;50.844;4.418;2023-02-28T08:12:37;2.90;99.90
22337;DHT22;14992;50.844;4.418;2023-02-28T08:15:07;3.10;99.90
22337;DHT22;14992;50.844;4.418;2023-02-28T08:17:36;3.20;99.90
22337;DHT22;14992;50.844;4.418;2023-02-28T08:20:06;3.20;99.90
22337;DHT22;14992;50.844;4.418;2023-02-28T08:22:37;3.30;99.90
22337;DHT22;14992;50.844;4.418;2023-02-28T08:25:07;3.20;99.90
22337;DHT22;14992;50.844;4.418;2023-02-28T08:27:36;3.30;99.90
22337;DHT22;14992;50.844;4.418;2023-02-28T08:30:06;3.30;99.90
22337;DHT22;14992;50.844;4.418;2023-02-28T08:32:35;3.30;99.90
22337;DHT22;14992;50.844;4.418;2023-02-28T08:35:05;3.40;99.90
22337;DHT22;14992;50.844;4.418;2023-02-28T08:37:34;3.60;99.90
22337;DHT22;14992;50.844;4.418;2023-02-28T08:40:06;3.60;99.90
22337;DHT22;14992;50.844;4.418;2023-02-28T08:42:35;3.50;99.90
22337;DHT22;14992;50.844;4.418;2023-02-28T08:45:05;3.50;99.90
22337;DHT22;14992;50.844;4.418;2023-02-28T08:47:34;3.50;99.90
22337;DHT22;14992;50.844;4.418;2023-02-28T08:50:04;3.40;99.90
22337;DHT22;14992;50.844;4.418;2023-02-28T08:52:33;3.50;99.90
22337;DHT22;14992;50.844;4.418;2023-02-28T08:55:02;3.40;99.90
22337;DHT22;14992;50.844;4.418;2023-02-28T08:57:32;3.40;99.90
22337;DHT22;14992;50.844;4.418;2023-02-28T09:00:02;3.50;99.90
22337;DHT22;14992;50.844;4.418;2023-02-28T09:02:31;3.70;99.90
22337;DHT22;14992;50.844;4.418;2023-02-28T09:05:00;3.80;99.90
22337;DHT22;14992;50.844;4.418;2023-02-28T09:07:30;3.90;99.90
22337;DHT22;14992;50.844;4.418;2023-02-28T09:09:59;3.90;99.90
22337;DHT22;14992;50.844;4.418;2023-02-28T09:12:34;3.70;99.90
22337;DHT22;14992;50.844;4.418;2023-02-28T09:15:04;3.70;99.90
22337;DHT22;14992;50.844;4.418;2023-02-28T09:17:33;3.60;99.90
22337;DHT22;14992;50.844;4.418;2023-02-28T09:20:02;3.80;99.90
22337;DHT22;14992;50.844;4.418;2023-02-28T09:22:31;3.90;99.90
22337;DHT22;14992;50.844;4.418;2023-02-28T09:25:00;4.00;99.90
22337;DHT22;14992;50.844;4.418;2023-02-28T09:27:29;3.90;99.90
22337;DHT22;14992;50.844;4.418;2023-02-28T09:29:59;4.00;99.90
22337;DHT22;14992;50.844;4.418;2023-02-28T09:32:28;4.00;99.90
22337;DHT22;14992;50.844;4.418;2023-02-28T09:34:57;4.00;99.90
22337;DHT22;14992;50.844;4.418;2023-02-28T09:37:25;3.90;99.90
22337;DHT22;14992;50.844;4.418;2023-02-28T09:39:56;4.00;99.90
22337;DHT22;14992;50.844;4.418;2023-02-28T09:42:30;4.10;99.90
22337;DHT22;14992;50.844;4.418;2023-02-28T09:45:05;4.20;99.90
22337;DHT22;14992;50.844;4.418;2023-02-28T09:47:39;4.20;99.90
22337;DHT22;14992;50.844;4.418;2023-02-28T09:50:18;4.30;99.90
22337;DHT22;14992;50.844;4.418;2023-02-28T09:52:52;4.50;99.90
22337;DHT22;14992;50.844;4.418;2023-02-28T09:55:28;4.40;99.90
22337;DHT22;14992;50.844;4.418;2023-02-28T09:58:16;4.40;99.90
22337;DHT22;14992;50.844;4.418;2023-02-28T10:00:56;4.50;99.90
22337;DHT22;14992;50.844;4.418;2023-02-28T10:03:32;4.50;99.90
22337;DHT22;14992;50.844;4.418;2023-02-28T10:06:09;4.50;99.90
22337;DHT22;14992;50.844;4.418;2023-02-28T10:08:45;4.40;99.90
22337;DHT22;14992;50.844;4.418;2023-02-28T10:11:20;4.40;99.90
22337;DHT22;14992;50.844;4.418;2023-02-28T10:13:54;4.50;99.90
22337;DHT22;14992;50.844;4.418;2023-02-28T10:16:33;4.60;99.90
22337;DHT22;14992;50.844;4.418;2023-02-28T10:19:05;4.80;99.90
22337;DHT22;14992;50.844;4.418;2023-02-28T10:21:36;4.80;99.90
22337;DHT22;14992;50.844;4.418;2023-02-28T10:24:16;4.80;99.90
22337;DHT22;14992;50.844;4.418;2023-02-28T10:26:48;4.70;99.90
22337;DHT22;14992;50.844;4.418;2023-02-28T10:29:18;4.70;99.90
22337;DHT22;14992;50.844;4.418;2023-02-28T10:31:49;4.80;99.90
22337;DHT22;14992;50.844;4.418;2023-02-28T10:34:18;4.90;99.90
22337;DHT22;14992;50.844;4.418;2023-02-28T10:36:49;5.00;97.10
22337;DHT22;14992;50.844;4.418;2023-02-28T10:39:36;4.90;96.30
22337;DHT22;14992;50.844;4.418;2023-02-28T10:42:19;4.90;95.30
22337;DHT22;14992;50.844;4.418;2023-02-28T10:44:48;4.90;95.00
22337;DHT22;14992;50.844;4.418;2023-02-28T10:47:19;4.90;95.70
22337;DHT22;14992;50.844;4.418;2023-02-28T10:49:49;4.90;95.80
22337;DHT22;14992;50.844;4.418;2023-02-28T10:52:33;5.00;95.40
22337;DHT22;14992;50.844;4.418;2023-02-28T10:55:18;5.10;94.80
22337;DHT22;14992;50.844;4.418;2023-02-28T10:57:48;5.30;93.70
22337;DHT22;14992;50.844;4.418;2023-02-28T11:00:19;5.40;93.70
22337;DHT22;14992;50.844;4.418;2023-02-28T11:02:51;5.40;93.10
22337;DHT22;14992;50.844;4.418;2023-02-28T11:05:28;5.30;93.10
22337;DHT22;14992;50.844;4.418;2023-02-28T11:08:04;5.20;93.50
22337;DHT22;14992;50.844;4.418;2023-02-28T11:10:34;5.40;92.70
22337;DHT22;14992;50.844;4.418;2023-02-28T11:13:03;5.40;92.80
22337;DHT22;14992;50.844;4.418;2023-02-28T11:15:33;5.50;93.00
22337;DHT22;14992;50.844;4.418;2023-02-28T11:18:19;5.40;92.40
22337;DHT22;14992;50.844;4.418;2023-02-28T11:20:50;5.30;92.20
22337;DHT22;14992;50.844;4.418;2023-02-28T11:23:20;5.30;92.80
22337;DHT22;14992;50.844;4.418;2023-02-28T11:25:52;5.30;93.30
22337;DHT22;14992;50.844;4.418;2023-02-28T11:28:27;5.30;92.20
22337;DHT22;14992;50.844;4.418;2023-02-28T11:31:02;5.40;92.00
22337;DHT22;14992;50.844;4.418;2023-02-28T11:33:41;5.40;91.90
22337;DHT22;14992;50.844;4.418;2023-02-28T11:36:14;5.30;92.20
22337;DHT22;14992;50.844;4.418;2023-02-28T11:38:44;5.20;91.40
22337;DHT22;14992;50.844;4.418;2023-02-28T11:41:28;5.30;91.90
22337;DHT22;14992;50.844;4.418;2023-02-28T11:44:17;5.40;92.20
22337;DHT22;14992;50.844;4.418;2023-02-28T11:46:49;5.40;92.50
22337;DHT22;14992;50.844;4.418;2023-02-28T11:49:32;5.50;92.80
22337;DHT22;14992;50.844;4.418;2023-02-28T11:52:13;5.60;93.00
22337;DHT22;14992;50.844;4.418;2023-02-28T11:55:09;5.60;92.50
22337;DHT22;14992;50.844;4.418;2023-02-28T12:00:39;5.70;92.20
22337;DHT22;14992;50.844;4.418;2023-02-28T12:03:16;5.80;91.70
22337;DHT22;14992;50.844;4.418;2023-02-28T12:05:54;5.70;91.60
22337;DHT22;14992;50.844;4.418;2023-02-28T12:08:46;5.60;91.50
22337;DHT22;14992;50.844;4.418;2023-02-28T12:11:25;5.60;91.50
22337;DHT22;14992;50.844;4.418;2023-02-28T12:14:24;5.70;90.70
22337;DHT22;14992;50.844;4.418;2023-02-28T12:17:02;5.70;88.80
22337;DHT22;14992;50.844;4.418;2023-02-28T12:19:40;5.70;89.70
22337;DHT22;14992;50.844;4.418;2023-02-28T12:22:34;5.80;87.50
22337;DHT22;14992;50.844;4.418;2023-02-28T12:25:23;5.80;87.10
22337;DHT22;14992;50.844;4.418;2023-02-28T12:27:59;5.80;87.10
22337;DHT22;14992;50.844;4.418;2023-02-28T12:30:31;5.90;86.70
22337;DHT22;14992;50.844;4.418;2023-02-28T12:33:04;5.80;86.50
22337;DHT22;14992;50.844;4.418;2023-02-28T12:35:38;5.80;86.00
22337;DHT22;14992;50.844;4.418;2023-02-28T12:38:14;5.70;86.30
22337;DHT22;14992;50.844;4.418;2023-02-28T12:40:50;5.70;86.90
22337;DHT22;14992;50.844;4.418;2023-02-28T12:43:21;5.90;86.50
22337;DHT22;14992;50.844;4.418;2023-02-28T12:45:55;6.00;85.60
22337;DHT22;14992;50.844;4.418;2023-02-28T12:48:29;6.20;84.40
22337;DHT22;14992;50.844;4.418;2023-02-28T12:51:00;6.40;84.50
22337;DHT22;14992;50.844;4.418;2023-02-28T12:53:38;6.40;82.80
22337;DHT22;14992;50.844;4.418;2023-02-28T12:56:17;6.30;82.90
22337;DHT22;14992;50.844;4.418;2023-02-28T12:58:49;6.20;82.90
22337;DHT22;14992;50.844;4.418;2023-02-28T13:01:57;6.20;82.80
22337;DHT22;14992;50.844;4.418;2023-02-28T13:05:06;6.20;82.10
22337;DHT22;14992;50.844;4.418;2023-02-28T13:07:58;5.90;82.60
22337;DHT22;14992;50.844;4.418;2023-02-28T13:10:42;6.00;83.50
22337;DHT22;14992;50.844;4.418;2023-02-28T13:13:16;6.30;82.90
22337;DHT22;14992;50.844;4.418;2023-02-28T13:16:00;6.40;82.10
22337;DHT22;14992;50.844;4.418;2023-02-28T13:18:34;6.60;82.00
22337;DHT22;14992;50.844;4.418;2023-02-28T13:21:06;6.80;81.20
22337;DHT22;14992;50.844;4.418;2023-02-28T13:24:00;6.80;80.30
22337;DHT22;14992;50.844;4.418;2023-02-28T13:29:39;6.70;78.90
22337;DHT22;14992;50.844;4.418;2023-02-28T13:32:27;6.70;79.20
22337;DHT22;14992;50.844;4.418;2023-02-28T13:38:32;6.60;78.20
22337;DHT22;14992;50.844;4.418;2023-02-28T13:44:23;6.60;77.40
22337;DHT22;14992;50.844;4.418;2023-02-28T13:50:24;6.50;77.60
22337;DHT22;14992;50.844;4.418;2023-02-28T13:53:11;6.50;77.50
22337;DHT22;14992;50.844;4.418;2023-02-28T13:55:47;6.40;77.50
22337;DHT22;14992;50.844;4.418;2023-02-28T13:58:27;6.40;77.10
22337;DHT22;14992;50.844;4.418;2023-02-28T14:01:35;6.30;77.10
22337;DHT22;14992;50.844;4.418;2023-02-28T14:07:26;6.40;77.10
22337;DHT22;14992;50.844;4.418;2023-02-28T14:10:05;6.30;77.20
22337;DHT22;14992;50.844;4.418;2023-02-28T14:12:53;6.20;78.30
22337;DHT22;14992;50.844;4.418;2023-02-28T14:15:45;6.10;78.40
22337;DHT22;14992;50.844;4.418;2023-02-28T14:18:22;6.20;78.40
22337;DHT22;14992;50.844;4.418;2023-02-28T14:20:58;6.20;78.90
22337;DHT22;14992;50.844;4.418;2023-02-28T14:24:07;6.30;79.10
22337;DHT22;14992;50.844;4.418;2023-02-28T14:27:02;6.40;77.90
22337;DHT22;14992;50.844;4.418;2023-02-28T14:30:12;6.30;77.90
22337;DHT22;14992;50.844;4.418;2023-02-28T14:32:47;6.30;78.30
22337;DHT22;14992;50.844;4.418;2023-02-28T14:35:36;6.30;78.40
22337;DHT22;14992;50.844;4.418;2023-02-28T14:38:20;6.30;78.90
22337;DHT22;14992;50.844;4.418;2023-02-28T14:40:54;6.20;79.10
22337;DHT22;14992;50.844;4.418;2023-02-28T14:43:25;6.10;79.30
22337;DHT22;14992;50.844;4.418;2023-02-28T14:45:57;6.10;79.90
22337;DHT22;14992;50.844;4.418;2023-02-28T14:48:27;6.20;80.30
22337;DHT22;14992;50.844;4.418;2023-02-28T14:50:57;6.40;80.00
22337;DHT22;14992;50.844;4.418;2023-02-28T14:53:29;6.50;79.40
22337;DHT22;14992;50.844;4.418;2023-02-28T14:56:00;6.50;79.40
22337;DHT22;14992;50.844;4.418;2023-02-28T14:58:32;6.40;78.90
22337;DHT22;14992;50.844;4.418;2023-02-28T15:01:03;6.40;79.40
22337;DHT22;14992;50.844;4.418;2023-02-28T15:03:34;6.60;80.60
22337;DHT22;14992;50.844;4.418;2023-02-28T15:06:05;6.60;79.80
22337;DHT22;14992;50.844;4.418;2023-02-28T15:08:34;6.60;79.40
22337;DHT22;14992;50.844;4.418;2023-02-28T15:11:07;6.60;80.00
22337;DHT22;14992;50.844;4.418;2023-02-28T15:13:39;6.60;80.10
22337;DHT22;14992;50.844;4.418;2023-02-28T15:16:10;6.60;79.90
22337;DHT22;14992;50.844;4.418;2023-02-28T15:18:46;6.60;80.40
22337;DHT22;14992;50.844;4.418;2023-02-28T15:21:17;6.60;80.60
22337;DHT22;14992;50.844;4.418;2023-02-28T15:23:50;6.50;80.60
22337;DHT22;14992;50.844;4.418;2023-02-28T15:26:25;6.30;81.40
22337;DHT22;14992;50.844;4.418;2023-02-28T15:28:59;6.30;82.40
22337;DHT22;14992;50.844;4.418;2023-02-28T15:31:29;6.30;82.50
22337;DHT22;14992;50.844;4.418;2023-02-28T15:34:19;6.40;82.60
22337;DHT22;14992;50.844;4.418;2023-02-28T15:36:51;6.30;83.10
22337;DHT22;14992;50.844;4.418;2023-02-28T15:39:21;6.10;83.40
22337;DHT22;14992;50.844;4.418;2023-02-28T15:42:10;5.90;84.70
22337;DHT22;14992;50.844;4.418;2023-02-28T15:44:39;5.90;85.70
22337;DHT22;14992;50.844;4.418;2023-02-28T15:47:17;5.90;85.20
22337;DHT22;14992;50.844;4.418;2023-02-28T15:49:49;5.90;85.40
22337;DHT22;14992;50.844;4.418;2023-02-28T15:52:21;6.00;85.60
22337;DHT22;14992;50.844;4.418;2023-02-28T15:54:51;6.10;86.40
22337;DHT22;14992;50.844;4.418;2023-02-28T15:57:23;6.10;85.70
22337;DHT22;14992;50.844;4.418;2023-02-28T15:59:55;5.90;85.50
22337;DHT22;14992;50.844;4.418;2023-02-28T16:02:31;5.90;86.10
22337;DHT22;14992;50.844;4.418;2023-02-28T16:07:56;5.80;86.60
22337;DHT22;14992;50.844;4.418;2023-02-28T16:10:28;5.70;87.10
22337;DHT22;14992;50.844;4.418;2023-02-28T16:13:02;5.60;87.40
22337;DHT22;14992;50.844;4.418;2023-02-28T16:15:35;5.70;87.40
22337;DHT22;14992;50.844;4.418;2023-02-28T16:18:10;5.80;88.60
22337;DHT22;14992;50.844;4.418;2023-02-28T16:20:40;5.80;87.40
22337;DHT22;14992;50.844;4.418;2023-02-28T16:23:09;5.80;87.90
22337;DHT22;14992;50.844;4.418;2023-02-28T16:25:40;5.80;88.00
22337;DHT22;14992;50.844;4.418;2023-02-28T16:28:18;5.70;88.40
22337;DHT22;14992;50.844;4.418;2023-02-28T16:30:48;5.70;89.50
22337;DHT22;14992;50.844;4.418;2023-02-28T16:33:19;5.70;90.00
22337;DHT22;14992;50.844;4.418;2023-02-28T16:35:48;5.80;90.10
22337;DHT22;14992;50.844;4.418;2023-02-28T16:38:17;5.80;90.60
22337;DHT22;14992;50.844;4.418;2023-02-28T16:40:46;5.70;90.50
22337;DHT22;14992;50.844;4.418;2023-02-28T16:43:22;5.60;90.60
22337;DHT22;14992;50.844;4.418;2023-02-28T16:45:54;5.50;90.70
22337;DHT22;14992;50.844;4.418;2023-02-28T16:48:25;5.50;90.50
22337;DHT22;14992;50.844;4.418;2023-02-28T16:50:54;5.60;90.60